Time;durP1;ratioP1;P1;durP2;ratioP2;P2;SDS_P1;SDS_P2;PMS_P1;PMS_P2;Temp;Humidity;BMP_temperature;BMP_pressure;BME280_temperature;BME280_humidity;BME280_pressure;Samples;Min_cycle;Max_cycle;Signal;HPM_P1;HPM_P2
2023/04/24 00:02:10;;;;;;;9.20;6.40;;;;;;;10.72;50.60;99291.35;107042;1265;74575;-39
2023/04/24 00:04:41;;;;;;;10.80;6.40;;;;;;;10.68;50.71;99288.94;106995;1260;62741;-39
2023/04/24 00:07:08;;;;;;;12.20;6.30;;;;;;;10.60;50.81;99284.77;106976;1260;61855;-39
2023/04/24 00:09:35;;;;;;;13.90;6.70;;;;;;;10.53;51.05;99286.60;106869;1262;75220;-39
2023/04/24 00:12:05;;;;;;;10.30;6.80;;;;;;;10.47;51.26;99287.89;106867;1265;70309;-39
2023/04/24 00:14:32;;;;;;;;;;;;;;;10.42;51.42;99287.00;107022;1264;74669;-39
2023/04/24 00:16:59;;;;;;;8.80;6.30;;;;;;;10.34;51.91;99287.33;106797;1261;61949;-39
2023/04/24 00:19:27;;;;;;;10.70;6.40;;;;;;;10.27;52.21;99285.65;106883;1266;62445;-39
2023/04/24 00:21:54;;;;;;;12.50;6.20;;;;;;;10.26;52.38;99281.21;106930;1263;75168;-39
2023/04/24 00:24:21;;;;;;;9.80;6.60;;;;;;;10.25;52.41;99284.76;106883;1266;70144;-39
2023/04/24 00:26:48;;;;;;;12.60;6.60;;;;;;;10.23;52.46;99287.19;106816;1265;72296;-39
2023/04/24 00:29:15;;;;;;;11.30;5.90;;;;;;;10.19;52.57;99282.17;107001;1261;62275;-39
2023/04/24 00:31:43;;;;;;;9.50;6.30;;;;;;;10.16;52.41;99280.79;106889;1260;62489;-39
2023/04/24 00:34:11;;;;;;;11.20;6.30;;;;;;;10.12;52.57;99280.46;107038;1261;75138;-39
2023/04/24 00:36:38;;;;;;;9.50;7.00;;;;;;;10.09;53.03;99279.16;106865;1260;70283;-39
2023/04/24 00:39:08;;;;;;;9.00;6.10;;;;;;;10.05;53.06;99277.08;106984;1265;74732;-39
2023/04/24 00:41:37;;;;;;;9.80;6.30;;;;;;;10.01;53.15;99276.38;106974;1263;60510;-39
2023/04/24 00:44:05;;;;;;;8.20;6.00;;;;;;;9.99;52.99;99276.04;106987;1262;61137;-39
2023/04/24 00:46:32;;;;;;;10.70;6.80;;;;;;;9.96;52.82;99276.83;106844;1262;74936;-39
2023/04/24 00:48:59;;;;;;;10.00;6.40;;;;;;;9.90;52.67;99275.55;106976;1265;69896;-39
2023/04/24 00:51:27;;;;;;;8.70;6.00;;;;;;;9.82;53.02;99277.88;106962;1266;74728;-39
2023/04/24 00:53:54;;;;;;;9.60;6.20;;;;;;;9.76;53.17;99275.11;106965;1261;59712;-38
2023/04/24 00:56:21;;;;;;;8.00;6.00;;;;;;;9.70;53.24;99275.36;106754;1262;62404;-38
2023/04/24 00:58:49;;;;;;;9.50;6.30;;;;;;;9.64;53.34;99276.39;106854;1266;74423;-38
2023/04/24 01:01:16;;;;;;;10.90;5.80;;;;;;;9.61;53.25;99279.21;106723;1268;69891;-38
2023/04/24 01:03:43;;;;;;;10.10;6.50;;;;;;;9.61;53.19;99279.75;106616;1268;73253;-38
2023/04/24 01:06:11;;;;;;;13.20;6.40;;;;;;;9.58;53.34;99278.05;106632;1264;62657;-38
2023/04/24 01:08:38;;;;;;;11.10;6.00;;;;;;;9.54;52.97;99280.04;106657;1264;61320;-38
2023/04/24 01:11:05;;;;;;;9.10;5.70;;;;;;;9.47;52.98;99274.48;105905;1264;1003699;-38
2023/04/24 01:13:33;;;;;;;8.90;6.10;;;;;;;9.40;53.44;99277.05;106844;1266;70268;-38
2023/04/24 01:16:00;;;;;;;9.20;6.00;;;;;;;9.37;53.29;99275.98;106826;1265;73371;-38
2023/04/24 01:18:28;;;;;;;12.30;5.80;;;;;;;9.37;52.90;99276.11;106838;1267;62528;-38
2023/04/24 01:20:59;;;;;;;8.90;5.70;;;;;;;9.36;52.95;99272.84;106891;1264;61639;-38
2023/04/24 01:23:26;;;;;;;9.40;6.20;;;;;;;9.36;52.99;99273.55;106899;1267;73237;-38
2023/04/24 01:25:53;;;;;;;9.70;6.10;;;;;;;9.34;53.15;99273.59;106906;1267;68150;-38
2023/04/24 01:28:21;;;;;;;9.40;6.20;;;;;;;9.32;53.30;99272.78;106826;1268;74766;-38
2023/04/24 01:30:48;;;;;;;8.90;5.90;;;;;;;9.29;53.33;99273.79;106817;1266;61709;-38
2023/04/24 01:33:15;;;;;;;9.60;6.20;;;;;;;9.27;53.34;99270.39;107019;1261;60850;-38
2023/04/24 01:35:42;;;;;;;9.20;5.50;;;;;;;9.24;53.26;99272.13;107215;1260;73423;-38
2023/04/24 01:38:10;;;;;;;11.70;6.10;;;;;;;9.25;53.42;99269.91;107271;1257;69136;-38
2023/04/24 01:40:37;;;;;;;8.60;6.20;;;;;;;9.26;53.61;99269.31;107191;1257;74975;-38
2023/04/24 01:43:05;;;;;;;9.00;6.60;;;;;;;9.28;53.60;99267.02;107076;1257;60369;-38
2023/04/24 01:45:32;;;;;;;10.10;7.30;;;;;;;9.27;53.40;99263.70;107149;1260;61070;-38
2023/04/24 01:47:59;;;;;;;10.30;7.00;;;;;;;9.25;53.52;99262.87;107037;1262;76090;-38
2023/04/24 01:50:28;;;;;;;15.20;8.20;;;;;;;9.22;53.57;99260.56;106943;1257;66507;-38
2023/04/24 01:52:55;;;;;;;12.60;8.10;;;;;;;9.20;53.72;99260.05;107217;1260;73857;-38
2023/04/24 01:55:22;;;;;;;13.80;8.10;;;;;;;9.18;53.82;99256.77;107024;1257;60539;-38
2023/04/24 01:57:50;;;;;;;13.00;7.60;;;;;;;9.14;53.89;99252.81;107084;1257;62534;-38
2023/04/24 02:00:18;;;;;;;10.30;7.40;;;;;;;9.13;53.99;99254.50;107207;1257;72657;-38
2023/04/24 02:02:45;;;;;;;14.20;8.40;;;;;;;9.06;54.02;99242.20;107144;1260;68437;-38
2023/04/24 02:05:14;;;;;;;11.40;7.80;;;;;;;9.09;54.15;99250.85;107134;1262;74794;-38
2023/04/24 02:07:42;;;;;;;11.10;7.60;;;;;;;9.07;54.23;99250.26;107048;1257;59954;-38
2023/04/24 02:10:09;;;;;;;15.10;8.50;;;;;;;9.06;54.35;99246.28;107201;1257;61236;-38
2023/04/24 02:12:41;;;;;;;11.90;8.00;;;;;;;9.05;54.51;99246.73;107203;1256;74977;-38
2023/04/24 02:15:09;;;;;;;13.30;8.40;;;;;;;9.02;54.59;99243.72;107187;1257;70331;-38
2023/04/24 02:17:36;;;;;;;14.50;9.00;;;;;;;9.01;54.62;99243.14;107321;1257;72345;-38
2023/04/24 02:20:06;;;;;;;11.10;8.50;;;;;;;8.99;54.63;99244.14;107235;1257;60692;-38
2023/04/24 02:22:33;;;;;;;11.10;8.30;;;;;;;8.99;54.83;99248.91;107156;1257;62488;-38
2023/04/24 02:25:01;;;;;;;12.90;8.30;;;;;;;9.00;55.00;99246.16;107232;1260;73868;-38
2023/04/24 02:27:28;;;;;;;12.30;8.00;;;;;;;8.99;55.31;99238.70;107169;1258;69067;-38
2023/04/24 02:29:56;;;;;;;15.40;9.70;;;;;;;8.99;55.15;99239.09;107112;1257;72542;-38
2023/04/24 02:32:24;;;;;;;15.40;9.00;;;;;;;9.00;55.00;99237.50;107158;1257;60593;-38
2023/04/24 02:34:51;;;;;;;14.10;9.30;;;;;;;9.01;55.12;99236.45;107187;1260;62754;-38
2023/04/24 02:37:18;;;;;;;13.10;8.90;;;;;;;8.97;55.17;99234.05;106437;1256;1003346;-38
2023/04/24 02:39:45;;;;;;;13.80;9.60;;;;;;;9.03;55.23;99247.23;107215;1260;60518;-38
2023/04/24 02:42:12;;;;;;;14.90;9.70;;;;;;;9.06;55.26;99245.68;107149;1257;74564;-38
2023/04/24 02:44:40;;;;;;;15.40;9.10;;;;;;;9.07;55.61;99244.92;107249;1256;61603;-38
2023/04/24 02:47:08;;;;;;;14.00;9.60;;;;;;;9.07;55.65;99242.84;107165;1256;62999;-38
2023/04/24 02:49:35;;;;;;;17.00;9.60;;;;;;;9.06;55.76;99243.05;107211;1257;76130;-38
2023/04/24 02:52:03;;;;;;;16.00;9.50;;;;;;;9.05;55.76;99239.23;107211;1260;70261;-38
2023/04/24 02:54:30;;;;;;;13.70;9.40;;;;;;;9.06;55.21;99244.11;107190;1257;74938;-38
2023/04/24 02:56:57;;;;;;;18.00;10.00;;;;;;;9.08;54.92;99246.02;107004;1257;61916;-38
2023/04/24 02:59:26;;;;;;;15.70;10.20;;;;;;;9.04;55.01;99235.44;107050;1261;60316;-38
2023/04/24 03:01:54;;;;;;;15.10;9.70;;;;;;;9.11;54.82;99244.02;107006;1257;76193;-38
2023/04/24 03:04:22;;;;;;;17.80;10.10;;;;;;;9.12;54.61;99240.32;107150;1257;70351;-38
2023/04/24 03:06:52;;;;;;;18.90;10.30;;;;;;;9.14;54.58;99241.61;107231;1257;74583;-39
2023/04/24 03:09:20;;;;;;;21.60;10.20;;;;;;;9.16;54.62;99240.96;107145;1257;61808;-39
2023/04/24 03:11:48;;;;;;;19.00;10.10;;;;;;;9.17;54.36;99242.75;107235;1258;62407;-39
2023/04/24 03:14:16;;;;;;;18.30;10.00;;;;;;;9.18;54.23;99247.95;107133;1262;75181;-39
2023/04/24 03:19:29;;;;;;;14.70;9.60;;;;;;;9.23;54.28;99247.52;107026;1258;74981;-39
2023/04/24 03:22:04;;;;;;;16.00;10.50;;;;;;;9.24;54.48;99250.02;107148;1257;60278;-39
2023/04/24 03:24:32;;;;;;;18.40;9.60;;;;;;;9.24;54.51;99255.89;107177;1258;60168;-39
2023/04/24 03:27:00;;;;;;;14.90;9.40;;;;;;;9.27;54.64;99256.42;107051;1257;74430;-39
2023/04/24 03:29:44;;;;;;;16.80;10.10;;;;;;;9.32;54.78;99256.94;107025;1258;68700;-39
2023/04/24 03:32:11;;;;;;;17.30;9.80;;;;;;;9.36;55.12;99254.46;107097;1260;75270;-39
2023/04/24 03:34:38;;;;;;;17.50;9.80;;;;;;;9.39;55.00;99253.98;107060;1261;60398;-39
2023/04/24 03:37:06;;;;;;;15.70;9.30;;;;;;;9.41;54.92;99254.41;107166;1259;60464;-39
2023/04/24 03:39:33;;;;;;;14.40;9.30;;;;;;;9.41;54.89;99253.25;107174;1257;74359;-39
2023/04/24 03:42:01;;;;;;;12.90;8.60;;;;;;;9.39;54.84;99255.23;107121;1257;68192;-39
2023/04/24 03:44:38;;;;;;;13.80;8.50;;;;;;;9.36;54.75;99247.36;107196;1257;73023;-39
2023/04/24 03:47:05;;;;;;;13.70;8.70;;;;;;;9.37;54.65;99255.11;107079;1257;60524;-39
2023/04/24 03:49:32;;;;;;;11.60;7.90;;;;;;;9.37;54.58;99256.88;107049;1258;61153;-39
2023/04/24 03:52:00;;;;;;;11.00;7.90;;;;;;;9.39;54.49;99255.29;107122;1260;74422;-39
2023/04/24 03:54:27;;;;;;;14.20;7.70;;;;;;;9.40;54.40;99258.10;107144;1257;68223;-39
2023/04/24 03:56:55;;;;;;;11.70;7.70;;;;;;;9.45;54.23;99258.38;107229;1258;73497;-39
2023/04/24 03:59:22;;;;;;;11.90;7.40;;;;;;;9.51;54.01;99257.56;107229;1257;60563;-39
2023/04/24 04:02:00;;;;;;;10.10;6.80;;;;;;;9.59;54.25;99260.05;107150;1257;61235;-39
2023/04/24 04:04:28;;;;;;;10.30;7.20;;;;;;;9.65;53.78;99262.20;107218;1257;74655;-40
2023/04/24 04:06:55;;;;;;;13.90;6.70;;;;;;;9.75;53.07;99264.40;107173;1257;69543;-39
2023/04/24 04:09:23;;;;;;;10.90;6.90;;;;;;;9.85;52.69;99263.14;107129;1259;73718;-39
2023/04/24 04:11:51;;;;;;;11.90;7.40;;;;;;;9.96;52.81;99261.11;106913;1258;61479;-39
2023/04/24 04:14:18;;;;;;;12.10;7.40;;;;;;;10.05;52.64;99257.66;107049;1263;62688;-39
2023/04/24 04:16:46;;;;;;;14.60;7.00;;;;;;;10.13;52.90;99253.70;107197;1257;75391;-39
2023/04/24 04:19:14;;;;;;;12.00;7.10;;;;;;;10.18;53.05;99251.66;107121;1257;66956;-39
2023/04/24 04:21:42;;;;;;;9.50;6.60;;;;;;;10.23;52.53;99254.23;107182;1257;73704;-40
2023/04/24 04:24:15;;;;;;;14.40;7.00;;;;;;;10.30;52.64;99255.28;107123;1260;63916;-38
2023/04/24 04:26:46;;;;;;;8.80;6.60;;;;;;;10.37;52.61;99255.64;107143;1258;61237;-38
2023/04/24 04:29:26;;;;;;;;;;;;;;;10.46;52.85;99257.41;107132;1258;73418;-38
2023/04/24 04:31:54;;;;;;;12.50;7.20;;;;;;;10.46;52.88;99259.28;107097;1257;67503;-38
2023/04/24 04:34:23;;;;;;;11.80;7.60;;;;;;;10.49;52.72;99261.75;107182;1259;72791;-38
2023/04/24 04:36:50;;;;;;;13.70;7.70;;;;;;;10.57;52.77;99259.48;107242;1257;62484;-38
2023/04/24 04:39:36;;;;;;;11.50;7.20;;;;;;;10.60;53.12;99257.66;105654;1262;1003504;-38
2023/04/24 04:42:06;;;;;;;12.80;7.80;;;;;;;10.57;53.13;99255.53;107126;1257;74395;-38
2023/04/24 04:44:39;;;;;;;15.00;8.10;;;;;;;10.55;53.42;99257.83;107140;1257;67833;-38
2023/04/24 04:47:08;;;;;;;12.20;8.30;;;;;;;10.54;53.66;99257.41;107084;1258;73654;-38
2023/04/24 04:49:38;;;;;;;12.10;7.60;;;;;;;10.53;53.96;99255.53;107125;1259;60408;-38
2023/04/24 04:52:09;;;;;;;11.50;7.80;;;;;;;10.52;54.12;99257.99;106957;1257;62698;-38
2023/04/24 04:54:37;;;;;;;12.20;7.50;;;;;;;10.51;54.25;99258.98;107164;1261;74737;-38
2023/04/24 04:57:04;;;;;;;10.80;7.20;;;;;;;10.50;54.04;99258.27;107014;1258;70262;-38
2023/04/24 04:59:31;;;;;;;12.40;7.00;;;;;;;10.50;53.96;99257.58;107052;1257;73885;-38
2023/04/24 05:02:03;;;;;;;11.60;7.10;;;;;;;10.50;53.92;99256.55;107137;1257;61129;-38
2023/04/24 05:04:31;;;;;;;11.10;7.30;;;;;;;10.46;53.85;99248.36;107108;1262;60370;-38
2023/04/24 05:06:58;;;;;;;14.00;7.60;;;;;;;10.53;53.89;99258.80;107090;1258;74928;-38
2023/04/24 05:09:29;;;;;;;13.80;7.20;;;;;;;10.56;53.66;99259.23;106923;1263;67928;-38
2023/04/24 05:12:02;;;;;;;15.00;7.90;;;;;;;10.59;53.38;99255.55;107119;1258;73778;-39
2023/04/24 05:14:31;;;;;;;12.80;7.80;;;;;;;10.63;53.36;99257.80;107168;1257;61283;-39
2023/04/24 05:17:00;;;;;;;12.60;8.00;;;;;;;10.67;53.42;99252.73;107192;1257;60458;-39
2023/04/24 05:19:27;;;;;;;14.10;8.00;;;;;;;10.71;53.53;99255.77;107232;1257;76307;-39
2023/04/24 05:21:54;;;;;;;13.50;7.90;;;;;;;10.75;53.51;99253.66;107196;1257;70506;-39
2023/04/24 05:24:22;;;;;;;13.60;8.20;;;;;;;10.78;53.75;99255.34;107171;1262;72834;-39
2023/04/24 05:27:09;;;;;;;13.30;8.30;;;;;;;10.82;53.99;99253.23;107212;1258;61309;-39
2023/04/24 05:29:40;;;;;;;13.70;8.60;;;;;;;10.84;54.21;99250.56;107179;1257;61118;-39
2023/04/24 05:32:08;;;;;;;12.20;8.20;;;;;;;10.88;54.20;99247.83;107268;1257;74202;-39
2023/04/24 05:34:35;;;;;;;11.80;7.60;;;;;;;10.93;54.27;99243.10;107039;1257;70174;-39
2023/04/24 05:37:03;;;;;;;11.50;8.00;;;;;;;10.99;54.48;99246.21;107145;1260;73069;-39
2023/04/24 05:39:30;;;;;;;14.60;7.70;;;;;;;11.07;54.04;99243.23;107040;1257;62208;-39
2023/04/24 05:42:01;;;;;;;12.20;7.60;;;;;;;11.17;53.61;99245.31;107156;1257;61412;-39
2023/04/24 05:44:28;;;;;;;10.70;7.10;;;;;;;11.29;53.69;99243.15;107162;1262;76177;-39
2023/04/24 05:46:56;;;;;;;12.10;7.00;;;;;;;11.44;53.37;99244.69;107199;1258;68722;-39
2023/04/24 05:49:24;;;;;;;12.20;7.20;;;;;;;11.62;53.00;99239.57;107111;1257;74931;-40
2023/04/24 05:51:51;;;;;;;8.80;6.50;;;;;;;11.83;53.13;99240.64;107249;1257;60440;-39
2023/04/24 05:54:19;;;;;;;11.20;6.50;;;;;;;12.07;52.66;99235.23;107185;1256;62340;-40
2023/04/24 05:56:46;;;;;;;10.80;6.60;;;;;;;12.31;51.90;99237.66;107096;1262;76167;-40
2023/04/24 05:59:18;;;;;;;10.80;6.50;;;;;;;12.56;51.35;99235.71;107183;1262;67536;-40
2023/04/24 06:01:46;;;;;;;7.90;5.60;;;;;;;12.79;50.84;99236.91;107073;1262;72126;-39
2023/04/24 06:04:16;;;;;;;;;;;;;;;13.00;50.25;99234.75;107192;1259;60734;-39
2023/04/24 06:06:43;;;;;;;8.80;5.70;;;;;;;13.15;50.00;99235.73;107252;1257;62401;-39
2023/04/24 06:09:11;;;;;;;8.80;5.90;;;;;;;13.31;49.45;99238.71;107222;1257;74220;-39
2023/04/24 06:11:39;;;;;;;10.40;5.80;;;;;;;13.52;49.43;99236.95;107182;1257;68997;-39
2023/04/24 06:14:07;;;;;;;9.90;5.80;;;;;;;13.72;48.87;99243.89;107171;1257;75005;-39
2023/04/24 06:16:57;;;;;;;9.20;6.60;;;;;;;13.90;47.53;99247.16;107174;1262;62622;-40
2023/04/24 06:19:31;;;;;;;13.30;6.90;;;;;;;14.01;47.36;99241.14;107187;1257;60428;-40
2023/04/24 06:21:58;;;;;;;9.50;5.90;;;;;;;14.10;47.76;99239.52;107161;1257;76027;-39
2023/04/24 06:24:28;;;;;;;8.40;6.20;;;;;;;14.27;47.45;99236.90;107207;1257;69009;-39
2023/04/24 06:26:58;;;;;;;9.00;6.00;;;;;;;14.46;47.36;99241.25;107089;1257;73165;-39
2023/04/24 06:29:26;;;;;;;7.40;5.50;;;;;;;14.60;47.15;99238.46;107109;1257;61568;-39
2023/04/24 06:31:53;;;;;;;8.80;5.60;;;;;;;14.71;46.88;99237.22;107083;1257;61669;-38
2023/04/24 06:34:20;;;;;;;9.60;6.30;;;;;;;14.83;46.58;99238.23;107094;1258;75657;-38
2023/04/24 06:36:47;;;;;;;11.50;6.00;;;;;;;14.92;46.08;99238.45;107099;1257;69137;-38
2023/04/24 06:39:14;;;;;;;9.70;6.40;;;;;;;14.98;46.11;99240.10;107046;1258;74406;-38
2023/04/24 06:41:42;;;;;;;8.50;6.00;;;;;;;15.02;46.22;99237.37;107121;1257;61300;-38
2023/04/24 06:44:16;;;;;;;10.90;6.00;;;;;;;15.08;46.28;99234.77;107185;1257;60483;-38
2023/04/24 06:46:43;;;;;;;7.30;5.90;;;;;;;15.17;46.16;99235.31;107161;1257;76203;-39
2023/04/24 06:49:11;;;;;;;8.20;4.50;;;;;;;15.29;45.53;99232.02;107201;1258;70122;-38
2023/04/24 06:51:38;;;;;;;6.40;4.00;;;;;;;15.40;43.78;99234.16;107211;1257;72765;-38
2023/04/24 06:54:05;;;;;;;9.30;4.60;;;;;;;15.49;43.25;99235.17;107181;1259;62704;-38
2023/04/24 06:56:34;;;;;;;7.70;4.50;;;;;;;15.58;43.05;99239.15;107160;1257;62618;-38
2023/04/24 06:59:01;;;;;;;6.10;4.20;;;;;;;15.70;43.02;99241.98;107190;1257;76136;-39
2023/04/24 07:01:28;;;;;;;7.00;3.90;;;;;;;15.84;42.45;99239.27;107165;1262;69981;-38
2023/04/24 07:03:55;;;;;;;5.30;3.90;;;;;;;16.02;41.20;99241.39;107261;1257;74875;-39
2023/04/24 07:06:23;;;;;;;6.80;3.90;;;;;;;16.19;40.75;99243.95;107202;1257;62462;-39
2023/04/24 07:08:50;;;;;;;8.20;3.90;;;;;;;16.37;40.13;99238.68;107189;1257;61348;-39
2023/04/24 07:11:17;;;;;;;5.80;3.80;;;;;;;16.56;40.10;99241.38;107129;1257;76159;-38
2023/04/24 07:13:45;;;;;;;5.40;3.70;;;;;;;16.73;39.81;99245.27;107114;1257;70228;-39
2023/04/24 07:16:12;;;;;;;7.00;3.70;;;;;;;16.90;38.02;99241.59;107161;1262;74767;-39
2023/04/24 07:18:40;;;;;;;8.30;4.10;;;;;;;17.06;36.89;99241.39;107144;1259;62684;-39
2023/04/24 07:21:07;;;;;;;6.90;4.50;;;;;;;17.21;37.21;99240.52;107162;1262;61479;-39
2023/04/24 07:23:34;;;;;;;7.70;3.90;;;;;;;17.37;37.97;99243.11;107196;1257;75939;-39
2023/04/24 07:26:02;;;;;;;7.20;4.10;;;;;;;17.53;37.28;99244.58;107191;1257;70762;-39
2023/04/24 07:28:32;;;;;;;5.80;3.90;;;;;;;17.65;37.11;99242.28;107157;1262;74989;-39
2023/04/24 07:31:00;;;;;;;9.40;4.20;;;;;;;17.77;35.94;99241.34;107197;1257;62146;-39
2023/04/24 07:36:16;;;;;;;8.10;3.80;;;;;;;18.01;35.78;99238.24;107089;1257;74907;-40
2023/04/24 07:38:47;;;;;;;7.00;3.90;;;;;;;18.12;36.12;99238.70;107085;1258;70300;-39
2023/04/24 07:41:14;;;;;;;7.10;4.10;;;;;;;18.19;35.46;99239.16;107126;1257;73928;-39
2023/04/24 07:43:41;;;;;;;7.30;3.40;;;;;;;18.19;34.45;99239.08;107176;1257;61280;-39
2023/04/24 07:46:09;;;;;;;4.50;3.00;;;;;;;18.17;33.36;99233.85;107167;1257;61396;-39
2023/04/24 07:48:36;;;;;;;5.40;2.90;;;;;;;18.23;33.50;99233.61;107249;1257;75880;-39
2023/04/24 07:51:04;;;;;;;6.60;3.00;;;;;;;18.39;32.83;99234.25;107221;1257;69989;-39
2023/04/24 07:53:31;;;;;;;5.30;3.30;;;;;;;18.54;31.79;99232.23;107162;1258;74837;-39
2023/04/24 07:55:58;;;;;;;5.70;3.30;;;;;;;18.66;31.78;99232.52;107158;1259;61170;-39
2023/04/24 07:58:25;;;;;;;4.60;3.00;;;;;;;18.83;31.98;99231.55;107055;1256;62650;-39
2023/04/24 08:00:52;;;;;;;5.10;2.90;;;;;;;19.00;32.00;99223.57;107175;1257;74705;-39
2023/04/24 08:03:20;;;;;;;4.90;2.40;;;;;;;19.17;31.76;99220.52;107201;1257;69436;-39
2023/04/24 08:05:47;;;;;;;4.20;2.60;;;;;;;19.28;30.90;99209.96;107149;1257;74316;-39
2023/04/24 08:08:15;;;;;;;4.60;2.30;;;;;;;19.48;29.02;99220.81;107094;1257;62338;-39
2023/04/24 08:10:42;;;;;;;3.30;2.20;;;;;;;19.64;29.20;99216.66;107114;1258;62345;-39
2023/04/24 08:13:11;;;;;;;5.10;2.40;;;;;;;19.82;28.93;99214.71;107122;1257;74595;-39
2023/04/24 08:15:38;;;;;;;5.40;2.50;;;;;;;20.01;28.87;99215.26;107137;1257;68833;-39
2023/04/24 08:18:05;;;;;;;3.80;2.10;;;;;;;20.08;28.55;99207.77;107126;1258;75159;-39
2023/04/24 08:20:33;;;;;;;4.00;2.30;;;;;;;20.09;28.44;99212.23;107154;1259;62180;-39
2023/04/24 08:23:00;;;;;;;2.70;2.10;;;;;;;20.16;28.76;99208.80;107147;1258;61344;-39
2023/04/24 08:25:27;;;;;;;3.40;1.90;;;;;;;20.27;28.49;99203.75;107267;1256;76126;-39
2023/04/24 08:27:55;;;;;;;2.00;1.80;;;;;;;20.41;28.10;99207.31;107246;1256;69827;-39
2023/04/24 08:30:23;;;;;;;4.10;2.00;;;;;;;20.51;26.25;99198.59;107235;1257;74943;-39
2023/04/24 08:32:50;;;;;;;2.60;2.00;;;;;;;20.48;27.20;99201.48;107162;1256;62673;-39
2023/04/24 08:35:17;;;;;;;5.60;2.20;;;;;;;20.39;27.21;99202.94;107272;1256;62610;-39
2023/04/24 08:37:45;;;;;;;2.40;1.80;;;;;;;20.22;26.66;99196.94;107243;1256;74159;-39
2023/04/24 08:40:14;;;;;;;3.30;2.00;;;;;;;20.05;26.48;99202.45;107210;1256;69028;-39
2023/04/24 08:42:44;;;;;;;3.20;2.00;;;;;;;19.82;26.32;99191.21;107247;1257;71677;-39
2023/04/24 08:45:12;;;;;;;2.90;2.10;;;;;;;19.58;27.06;99198.40;107192;1256;61452;-39
2023/04/24 08:47:40;;;;;;;4.90;2.30;;;;;;;19.35;27.51;99194.10;107295;1256;61243;-39
2023/04/24 08:50:08;;;;;;;3.00;2.00;;;;;;;19.16;28.07;99191.80;107243;1256;76068;-39
2023/04/24 08:52:35;;;;;;;3.80;2.20;;;;;;;19.01;28.16;99191.98;107222;1256;70793;-39
2023/04/24 08:55:03;;;;;;;3.80;2.00;;;;;;;18.89;28.65;99191.98;107202;1258;75114;-39
2023/04/24 08:57:31;;;;;;;4.20;2.00;;;;;;;18.75;28.51;99191.34;107274;1257;61808;-40
2023/04/24 08:59:58;;;;;;;2.90;1.90;;;;;;;18.61;28.61;99194.80;107200;1256;60479;-39
2023/04/24 09:02:25;;;;;;;3.50;2.30;;;;;;;18.47;28.72;99191.30;107244;1256;75808;-39
2023/04/24 09:04:53;;;;;;;2.70;2.00;;;;;;;18.35;28.78;99184.52;107229;1256;69763;-39
2023/04/24 09:07:20;;;;;;;3.70;1.80;;;;;;;18.25;29.42;99182.63;107155;1257;75032;-39
2023/04/24 09:09:47;;;;;;;3.80;1.90;;;;;;;18.19;29.47;99180.92;107096;1262;62764;-39
2023/04/24 09:14:39;;;;;;;3.60;2.30;;;;;;;18.09;29.24;99180.66;104114;1293;600268;-38
2023/04/24 09:17:06;;;;;;;5.00;2.20;;;;;;;18.04;29.92;99182.85;106639;1267;62716;-39
2023/04/24 09:19:33;;;;;;;3.10;1.90;;;;;;;18.04;30.08;99180.89;106674;1266;62658;-39
2023/04/24 09:22:01;;;;;;;3.60;2.10;;;;;;;18.05;29.82;99179.15;106734;1266;74244;-39
2023/04/24 09:24:28;;;;;;;5.80;2.10;;;;;;;18.07;29.51;99173.65;106574;1267;70007;-39
2023/04/24 09:27:01;;;;;;;3.10;2.30;;;;;;;18.08;30.03;99172.59;106644;1267;74959;-39
2023/04/24 09:29:28;;;;;;;4.10;2.00;;;;;;;18.13;29.86;99172.95;106627;1264;59250;-39
2023/04/24 09:31:55;;;;;;;2.70;1.80;;;;;;;18.16;30.07;99164.02;106821;1264;61644;-39
2023/04/24 09:34:24;;;;;;;3.60;1.90;;;;;;;18.20;30.13;99164.35;106846;1263;72570;-39
2023/04/24 09:36:53;;;;;;;2.20;1.90;;;;;;;18.27;29.82;99161.44;106858;1264;68218;-39
2023/04/24 09:39:20;;;;;;;3.50;2.60;;;;;;;18.32;29.54;99159.00;106865;1264;74781;-39
2023/04/24 09:41:57;;;;;;;4.60;2.00;;;;;;;18.35;29.32;99155.96;106792;1268;62191;-39
2023/04/24 09:44:26;;;;;;;4.30;2.30;;;;;;;18.39;29.34;99156.29;106859;1267;62582;-39
2023/04/24 09:46:57;;;;;;;4.60;2.10;;;;;;;18.42;29.24;99157.36;106725;1263;74640;-39
2023/04/24 09:49:26;;;;;;;2.60;2.40;;;;;;;18.44;28.91;99152.30;106760;1264;70740;-39
2023/04/24 09:52:07;;;;;;;3.30;2.30;;;;;;;18.44;28.65;99150.41;106791;1264;74641;-39
2023/04/24 09:54:36;;;;;;;3.90;2.30;;;;;;;18.47;29.31;99142.05;106808;1264;61474;-38
2023/04/24 09:57:04;;;;;;;;;;;;;;;18.53;29.59;99140.08;106855;1264;62672;-38
2023/04/24 09:59:31;;;;;;;6.00;2.20;;;;;;;18.56;29.35;99136.66;106816;1265;75056;-38
2023/04/24 10:02:00;;;;;;;5.90;2.10;;;;;;;18.60;29.74;99140.67;106831;1264;69178;-38
2023/04/24 10:04:28;;;;;;;3.60;2.40;;;;;;;18.69;29.23;99139.90;106828;1269;73751;-38
2023/04/24 10:06:56;;;;;;;2.50;2.20;;;;;;;18.67;28.71;99131.30;106826;1264;62556;-38
2023/04/24 10:09:25;;;;;;;2.60;1.90;;;;;;;18.74;29.12;99129.77;106811;1264;62344;-38
2023/04/24 10:11:53;;;;;;;2.20;2.00;;;;;;;18.84;29.00;99133.20;106863;1264;75163;-38
2023/04/24 10:14:22;;;;;;;3.60;2.60;;;;;;;19.00;29.40;99127.33;106868;1263;66796;-38
2023/04/24 10:16:50;;;;;;;3.80;2.30;;;;;;;19.17;29.01;99123.92;106862;1264;72898;-38
2023/04/24 10:19:20;;;;;;;5.50;2.40;;;;;;;19.33;28.97;99115.77;106915;1264;62563;-38
2023/04/24 10:21:47;;;;;;;3.30;2.20;;;;;;;19.57;28.72;99120.88;106820;1263;62455;-38
2023/04/24 10:24:16;;;;;;;4.00;2.10;;;;;;;19.79;27.83;99117.42;106737;1264;75345;-38
2023/04/24 10:26:44;;;;;;;4.00;2.60;;;;;;;19.93;27.10;99119.99;106783;1264;67682;-38
2023/04/24 10:29:12;;;;;;;3.40;2.40;;;;;;;19.94;26.89;99120.45;106811;1264;73186;-39
2023/04/24 10:31:40;;;;;;;6.50;2.00;;;;;;;19.72;26.66;99096.42;106794;1264;59669;-38
2023/04/24 10:34:08;;;;;;;2.80;2.10;;;;;;;19.83;27.27;99116.85;106741;1267;61221;-38
2023/04/24 10:36:38;;;;;;;3.50;2.20;;;;;;;19.73;27.56;99115.88;106725;1264;75640;-38
2023/04/24 10:39:07;;;;;;;4.60;2.30;;;;;;;19.63;27.89;99114.08;106792;1264;70207;-38
2023/04/24 10:41:39;;;;;;;7.60;2.30;;;;;;;19.57;28.49;99113.27;106731;1264;74933;-38
2023/04/24 10:44:12;;;;;;;4.00;2.10;;;;;;;19.54;28.93;99109.23;106696;1270;62827;-38
2023/04/24 10:46:45;;;;;;;3.50;2.40;;;;;;;19.59;28.52;99109.35;106775;1263;62670;-38
2023/04/24 10:49:13;;;;;;;3.90;2.20;;;;;;;19.70;28.36;99103.14;106811;1264;74198;-38
2023/04/24 10:51:47;;;;;;;2.40;2.10;;;;;;;19.86;27.66;99100.56;106834;1264;69994;-38
2023/04/24 10:54:40;;;;;;;3.50;2.10;;;;;;;20.07;27.13;99091.23;106784;1264;74865;-38
2023/04/24 10:57:22;;;;;;;2.40;1.90;;;;;;;20.25;25.56;99093.06;106774;1267;62677;-39
2023/04/24 11:00:10;;;;;;;3.60;2.10;;;;;;;20.27;24.97;99093.48;106790;1269;61470;-38
2023/04/24 11:02:38;;;;;;;2.60;2.00;;;;;;;20.23;25.21;99088.46;106834;1264;75299;-38
2023/04/24 11:05:07;;;;;;;3.70;2.00;;;;;;;20.21;25.14;99092.05;106837;1264;70381;-38
2023/04/24 11:08:12;;;;;;;3.60;2.00;;;;;;;20.15;25.59;99092.03;106835;1264;73431;-38
2023/04/24 11:10:47;;;;;;;2.70;2.00;;;;;;;20.10;25.32;99092.80;106834;1264;62710;-38
2023/04/24 11:13:16;;;;;;;4.40;2.10;;;;;;;20.03;25.57;99095.89;107334;1257;62618;-38
2023/04/24 11:15:43;;;;;;;2.80;2.10;;;;;;;19.88;27.24;99090.95;107320;1256;74386;-38
2023/04/24 11:18:15;;;;;;;5.60;2.50;;;;;;;19.68;28.46;99093.86;107216;1257;70076;-39
2023/04/24 11:20:43;;;;;;;4.70;2.00;;;;;;;19.46;28.82;99106.09;107193;1257;74342;-38
2023/04/24 11:23:12;;;;;;;3.80;2.20;;;;;;;19.23;28.17;99105.06;107257;1257;62408;-38
2023/04/24 11:25:39;;;;;;;4.80;2.10;;;;;;;19.05;28.76;99102.73;107349;1257;62095;-38
2023/04/24 11:28:06;;;;;;;4.90;2.20;;;;;;;18.98;28.97;99096.84;107302;1257;73315;-38
2023/04/24 11:30:33;;;;;;;3.90;2.10;;;;;;;19.00;28.90;99095.40;107288;1260;70130;-38
2023/04/24 11:33:04;;;;;;;4.00;2.20;;;;;;;19.10;29.00;99100.05;107276;1257;71991;-38
2023/04/24 11:35:39;;;;;;;6.10;2.40;;;;;;;19.15;28.84;99096.12;107281;1257;60648;-38
2023/04/24 11:38:06;;;;;;;3.00;2.20;;;;;;;19.13;28.20;99097.80;107302;1256;62756;-38
2023/04/24 11:40:50;;;;;;;3.40;2.00;;;;;;;19.07;27.90;99095.70;107262;1257;75018;-38